Date,TemperatureHighF,TemperatureAvgF,TemperatureLowF,DewpointHighF,DewpointAvgF,DewpointLowF,HumidityHigh,HumidityAvg,HumidityLow,PressureMaxIn,PressureMinIn,WindSpeedMaxMPH,WindSpeedAvgMPH,GustSpeedMaxMPH,PrecipitationSumIn
2013-1-1,48.2,45.9,43.1,46.8,37.7,24.3,98,75,44,29.46,29.26,17,4,17,0.22
2013-1-2,46.7,41.7,38.0,45.7,40.2,35.5,99,95,80,29.53,29.26,14,2,14,0.20
2013-1-3,41.6,38.0,33.5,36.9,35.5,32.0,97,91,75,29.58,29.49,6,0,6,0.00
2013-1-4,48.0,37.4,28.8,32.0,24.0,18.9,94,61,34,29.64,29.52,14,3,14,0.00
2013-1-5,50.1,38.6,29.0,28.1,22.9,19.1,72,54,31,29.71,29.59,14,2,14,0.00
2013-1-6,49.9,43.1,39.3,36.1,31.7,26.3,79,65,56,29.61,29.39,10,1,10,0.00
2013-1-7,51.4,41.9,33.4,33.3,30.1,26.3,81,64,43,29.76,29.45,14,2,14,0.00
2013-1-8,53.5,41.9,31.3,37.9,32.9,27.4,89,72,49,29.80,29.70,4,0,4,0.00
2013-1-9,66.8,52.8,39.6,50.3,43.8,36.0,90,72,54,29.77,29.68,17,2,17,0.00
2013-1-10,61.5,53.9,46.1,49.2,41.1,31.9,85,63,45,29.87,29.72,10,2,10,0.00
2013-1-11,51.0,46.0,41.8,50.7,41.9,31.3,100,87,57,29.80,29.48,9,1,9,0.08
2013-1-12,66.6,56.7,49.1,64.7,55.3,47.4,100,95,80,29.51,29.44,8,1,8,0.00
2013-1-13,73.3,63.1,54.5,62.5,56.5,49.7,100,82,60,29.48,29.40,20,2,20,0.01
2013-1-14,67.6,62.9,51.1,63.4,58.8,49.7,100,87,74,29.50,29.40,16,3,16,0.14
2013-1-15,63.1,43.8,42.2,50.3,43.4,41.7,99,99,98,29.59,29.40,18,3,18,0.02
2013-1-16,49.1,44.7,41.3,49.1,44.6,41.3,100,100,99,29.47,29.31,12,1,12,0.12
2013-1-17,49.8,44.8,32.7,49.6,44.7,32.5,100,100,99,29.46,29.25,30,5,30,0.97
2013-1-18,44.1,35.7,31.2,33.6,28.5,21.6,99,78,42,29.86,29.33,14,2,14,0.44
2013-1-19,53.5,40.6,28.8,31.2,25.8,22.2,85,57,30,29.85,29.47,13,3,13,0.00
2013-1-20,61.5,49.7,40.8,34.0,29.8,22.9,65,48,28,29.54,29.32,20,7,20,0.00
2013-1-21,57.8,48.6,37.9,29.8,23.9,14.8,67,39,26,29.42,29.19,20,3,20,0.00
2013-1-22,48.8,31.8,26.1,16.0,2.3,-6.4,39,29,18,29.61,29.25,25,5,25,0.00
2013-1-23,39.5,28.7,19.2,14.8,5.7,-6.4,54,38,27,29.70,29.38,17,2,17,0.00
2013-1-24,34.3,29.9,21.6,22.4,11.6,2.1,62,47,31,29.84,29.29,28,6,28,0.00
2013-1-25,26.4,22.8,18.4,24.9,13.1,2.1,94,68,40,29.85,29.43,12,1,12,0.00
2013-1-26,33.4,29.0,26.0,30.8,27.5,24.0,96,94,89,29.72,29.41,12,1,12,0.11
2013-1-27,39.5,29.9,22.9,28.8,24.5,21.2,96,81,57,29.92,29.66,7,1,7,0.05
2013-1-28,50.4,41.3,29.7,46.1,34.5,24.3,89,77,55,29.86,29.55,16,4,16,0.04
2013-1-29,72.5,58.7,48.2,56.1,50.8,42.2,95,77,52,29.57,29.40,20,7,20,0.00
2013-1-30,71.1,66.4,60.5,62.7,60.4,54.1,93,81,70,29.43,28.74,25,10,25,0.03
2013-1-31,70.1,46.6,37.6,62.1,28.8,16.1,91,52,30,29.34,28.74,32,13,32,0.34
2013-2-1,40.1,33.8,24.4,26.9,11.0,-0.2,65,40,22,29.72,29.20,30,9,30,0.00
2013-2-2,43.5,31.4,19.1,30.4,10.5,3.5,65,43,25,29.72,29.35,24,3,24,0.00
2013-2-3,46.4,39.7,35.2,35.9,28.5,14.8,92,66,38,29.38,29.18,26,5,26,0.00
2013-2-4,46.5,37.6,28.5,26.1,20.4,15.4,70,51,32,29.47,29.29,17,3,17,0.00
2013-2-5,57.6,47.4,39.8,35.1,30.1,23.6,62,51,35,29.35,29.22,20,5,20,0.00
2013-2-6,59.9,49.0,39.8,34.9,28.6,21.2,74,48,24,29.63,29.28,16,3,16,0.00
2013-2-7,47.0,40.4,33.8,41.3,35.1,24.3,97,82,64,29.67,29.35,12,3,12,0.38
2013-2-8,53.2,44.0,37.8,44.8,38.3,27.9,98,82,50,29.44,29.14,25,9,25,0.23
2013-2-9,50.7,40.7,31.8,27.9,19.4,13.4,72,45,23,29.68,29.30,17,4,17,0.03
2013-2-10,51.6,40.2,30.7,39.4,20.2,14.5,86,46,26,29.81,29.55,7,1,7,0.85
2013-2-11,62.1,54.9,42.9,59.1,52.3,25.0,99,91,84,29.63,29.25,26,6,26,0.03
2013-2-12,60.2,52.4,44.5,53.0,32.9,22.8,88,50,27,29.41,29.26,14,4,14,0.00
2013-2-13,51.9,45.2,41.2,45.9,41.6,28.0,99,89,43,29.33,28.97,16,2,16,0.29
2013-2-14,50.4,41.4,33.1,34.9,31.5,26.4,91,70,47,29.41,29.06,16,1,16,0.00
2013-2-15,60.4,47.8,36.3,40.9,33.2,24.4,85,60,29,29.42,29.27,20,2,20,0.00
2013-2-16,50.4,35.8,29.1,35.1,31.5,28.1,97,86,59,29.31,29.16,17,4,17,0.17
2013-2-17,35.3,28.4,23.5,28.2,12.7,3.5,95,56,27,29.60,29.20,26,6,26,0.06
2013-2-18,50.7,35.7,20.8,23.6,14.9,8.2,73,45,24,29.73,29.54,13,2,13,0.00
2013-2-19,51.3,43.4,34.6,49.4,36.5,17.8,96,77,53,29.61,29.19,26,5,26,0.07
2013-2-20,50.7,40.9,32.5,38.4,17.3,9.4,93,42,19,29.47,29.27,18,5,18,0.00
2013-2-21,52.6,39.7,28.1,21.0,16.5,11.5,60,40,23,29.61,29.44,14,3,14,0.00
2013-2-22,42.1,35.0,30.6,34.7,29.2,19.0,96,81,45,29.69,29.47,8,1,8,0.17
2013-2-23,42.5,39.0,35.2,42.3,38.6,33.7,100,99,96,29.53,29.14,12,2,12,0.44
2013-2-24,61.8,49.3,39.5,46.7,35.2,24.1,100,65,26,29.38,29.13,16,3,16,0.02
2013-2-25,43.5,36.4,30.7,27.1,22.4,18.7,69,57,43,29.56,29.38,12,2,12,0.00
2013-2-26,57.0,43.9,32.8,57.0,40.8,23.1,100,89,67,29.51,28.91,20,5,20,0.65
2013-2-27,58.6,49.1,41.8,48.1,38.9,31.8,99,71,38,29.11,28.95,20,8,20,0.11
2013-2-28,49.9,42.5,37.3,38.3,30.1,23.9,84,63,41,29.18,29.03,20,4,20,0.00
2013-3-1,46.7,39.6,31.9,29.7,26.7,23.3,81,61,40,29.25,29.16,16,4,16,0.00
2013-3-2,45.2,38.5,30.3,26.8,23.1,18.3,71,54,40,29.25,29.15,16,4,16,0.00
2013-3-3,45.2,35.1,28.7,21.3,18.0,13.9,67,51,33,29.31,29.17,17,5,17,0.00
2013-3-4,50.2,37.0,25.3,17.1,12.9,8.8,58,39,21,29.43,29.28,20,4,20,0.00
2013-3-5,52.5,43.2,38.2,43.6,30.4,12.9,98,66,30,29.41,28.92,16,2,16,0.37
2013-3-6,43.2,38.9,34.3,39.6,32.7,26.6,99,80,60,29.34,28.85,33,11,33,0.03
2013-3-7,47.4,40.4,32.9,30.4,27.9,24.5,81,62,46,29.55,29.31,21,5,21,0.00
2013-3-8,54.2,42.2,30.7,27.1,24.0,19.4,76,51,28,29.61,29.47,24,6,24,0.00
2013-3-9,61.2,47.2,33.2,28.1,24.8,20.7,72,44,25,29.67,29.56,14,3,14,0.00
2013-3-10,65.6,52.6,37.8,29.8,23.7,17.1,64,35,16,29.66,29.55,12,1,12,0.00
2013-3-11,68.9,56.0,41.3,51.0,42.4,20.0,91,62,36,29.58,29.30,18,2,18,0.00
2013-3-12,68.4,60.2,48.2,60.9,51.9,33.1,98,76,49,29.32,29.10,20,7,20,0.51
2013-3-13,55.9,45.4,36.2,33.5,25.7,16.6,77,48,27,29.45,29.23,29,8,29,0.00
2013-3-14,52.5,39.7,28.5,20.2,16.0,13.2,63,40,22,29.55,29.39,22,4,22,0.00
2013-3-15,61.0,46.4,33.8,33.6,24.0,11.8,56,42,29,29.50,29.23,22,3,22,0.00
2013-3-16,75.4,62.2,51.6,51.2,40.5,32.5,60,45,33,29.25,28.99,22,5,22,0.00
2013-3-17,67.6,49.9,42.9,51.4,42.8,34.7,95,77,60,29.52,29.11,16,2,16,0.00
2013-3-18,42.9,39.3,36.8,41.1,38.2,31.7,100,96,78,29.53,29.19,9,1,9,0.17
2013-3-19,65.6,50.2,38.8,48.1,32.4,10.1,100,63,16,29.36,29.15,22,6,22,0.13
2013-3-20,56.6,46.4,38.0,21.3,11.9,1.5,45,25,16,29.44,29.13,17,4,17,0.00
2013-3-21,46.1,37.9,29.5,31.8,16.9,6.6,75,44,24,29.30,29.07,30,8,30,0.00
2013-3-22,49.8,36.5,24.1,20.1,12.1,7.6,62,39,19,29.40,29.25,17,4,17,0.00
2013-3-23,54.4,44.7,36.0,28.9,22.0,13.0,58,42,26,29.39,29.25,12,2,12,0.00
2013-3-24,47.6,38.0,34.9,36.9,32.8,26.3,97,83,51,29.31,28.92,20,4,20,0.59
2013-3-25,46.1,38.7,33.4,36.1,29.4,20.7,98,73,39,29.13,28.90,21,5,21,0.01
2013-3-26,47.4,41.1,32.8,28.0,25.5,23.0,73,54,42,29.42,29.07,16,5,16,0.00
2013-3-27,50.8,41.3,32.1,26.3,22.8,17.1,76,50,27,29.54,29.37,24,6,24,0.00
2013-3-28,54.8,43.1,31.2,27.0,22.7,17.7,73,47,27,29.61,29.47,22,6,22,0.00
2013-3-29,58.9,47.2,35.0,27.9,24.0,21.5,68,42,24,29.65,29.50,16,3,16,0.00
2013-3-30,65.8,53.4,40.9,42.3,28.7,21.3,63,40,24,29.57,29.42,12,2,12,0.00
2013-3-31,66.6,56.1,47.0,56.0,49.3,37.3,99,79,61,29.45,29.15,21,4,21,0.58
2013-4-1,70.6,59.4,49.9,54.4,45.4,31.5,99,66,27,29.32,29.15,24,5,24,0.12
2013-4-2,59.6,48.7,38.3,31.7,23.2,16.0,63,39,19,29.49,29.22,24,5,24,0.00
2013-4-3,58.3,47.7,36.6,24.4,18.3,12.9,57,33,19,29.63,29.43,16,3,16,0.00
2013-4-4,49.8,41.2,37.2,38.1,29.2,14.4,97,66,27,29.71,29.27,16,5,16,0.45
2013-4-5,63.2,48.7,38.6,46.3,40.4,34.2,99,77,44,29.36,29.20,20,5,20,0.03
2013-4-6,63.5,52.8,44.8,36.7,29.0,18.6,65,42,24,29.61,29.30,16,4,16,0.00
2013-4-7,70.9,54.4,34.9,42.6,35.7,28.8,86,53,30,29.62,29.45,22,3,22,0.00
2013-4-8,78.1,66.1,55.7,55.0,50.7,39.8,89,60,34,29.50,29.39,24,6,24,0.00
2013-4-9,84.0,71.5,60.7,57.8,54.6,48.5,85,58,32,29.52,29.40,20,6,20,0.00
2013-4-10,86.3,74.3,63.9,60.0,56.8,51.8,80,57,32,29.43,29.28,21,7,21,0.00
2013-4-11,80.3,71.2,63.1,65.1,58.9,54.9,88,66,43,29.34,29.15,21,8,21,0.00
2013-4-12,80.9,71.9,64.8,66.8,61.6,41.6,98,72,41,29.16,28.96,21,6,21,0.53
2013-4-13,73.9,63.6,53.2,43.3,38.2,33.9,57,40,25,29.34,29.00,18,4,18,0.00
2013-4-14,80.5,66.1,52.5,51.7,41.4,33.9,75,44,20,29.45,29.28,12,1,12,0.00
2013-4-15,69.6,62.7,56.5,57.4,54.5,44.1,92,75,58,29.57,29.38,12,2,12,0.01
2013-4-16,75.6,63.8,57.0,59.5,56.8,54.0,100,81,49,29.66,29.52,7,0,7,0.00
2013-4-17,81.4,69.6,59.3,64.8,60.4,54.8,96,75,48,29.57,29.46,16,3,16,0.00
2013-4-18,79.2,69.2,59.3,62.1,58.3,54.0,95,70,44,29.55,29.40,12,2,12,0.00
2013-4-19,81.1,70.2,64.5,66.6,64.0,57.2,98,82,57,29.41,29.07,43,6,43,0.50
2013-4-20,65.2,54.7,46.7,64.2,38.0,27.8,98,57,28,29.61,29.13,26,5,26,0.17
2013-4-21,59.2,50.4,41.8,41.2,36.5,31.8,84,61,41,29.83,29.56,18,3,18,0.00
2013-4-22,58.7,47.6,35.9,43.7,37.6,32.8,89,70,45,29.83,29.61,18,5,18,0.00
2013-4-23,66.4,54.1,47.6,49.2,44.7,41.6,85,72,48,29.64,29.47,18,4,18,0.00
2013-4-24,75.4,62.8,50.8,55.1,51.7,47.1,92,69,44,29.50,29.31,22,6,22,0.00
2013-4-25,70.3,60.8,51.6,55.5,45.0,37.2,81,57,35,29.61,29.35,17,4,17,0.00
2013-4-26,70.9,58.5,46.0,48.3,40.1,29.9,98,58,24,29.76,29.58,16,2,16,0.00
2013-4-27,72.7,61.4,50.2,48.1,43.3,36.5,79,54,30,29.72,29.60,12,1,12,0.00
2013-4-28,62.6,57.1,53.2,56.0,48.4,41.3,97,74,57,29.62,29.46,5,0,5,0.21
2013-4-29,72.1,61.6,53.8,62.5,58.5,49.8,100,91,62,29.49,29.32,7,0,7,1.07
2013-4-30,65.8,60.1,57.0,59.6,57.0,54.1,100,90,70,29.52,29.35,12,2,12,0.00
2013-5-1,59.5,57.4,56.5,57.9,55.6,54.1,97,93,89,29.68,29.51,20,5,20,0.01
2013-5-2,61.0,57.4,52.3,56.2,54.2,48.9,98,89,79,29.69,29.60,14,2,14,0.01
2013-5-3,68.1,55.6,46.2,53.3,47.3,41.9,98,76,42,29.62,29.53,14,3,14,0.00
2013-5-4,60.7,53.2,47.7,51.4,47.2,42.4,90,81,69,29.59,29.44,17,4,17,0.00
2013-5-5,58.4,53.3,47.7,54.7,49.5,44.8,92,87,78,29.47,29.35,13,3,13,0.00
2013-5-6,65.2,59.3,55.0,64.3,58.2,52.5,99,96,86,29.38,29.19,13,2,13,0.79
2013-5-7,69.4,60.9,53.8,60.7,54.8,47.3,100,82,50,29.30,29.20,18,2,18,0.05
2013-5-8,69.6,60.3,52.5,59.3,54.5,49.9,96,82,57,29.36,29.26,13,1,13,0.02
2013-5-9,79.6,65.9,52.6,60.4,55.4,52.3,100,73,40,29.41,29.32,12,2,12,0.00
2013-5-10,84.3,73.4,61.2,61.2,57.4,52.8,80,59,38,29.41,29.29,20,3,20,0.00
2013-5-11,79.6,71.4,66.3,65.7,61.6,56.9,92,72,51,29.32,29.14,21,5,21,0.00
2013-5-12,71.1,64.3,52.9,64.1,49.0,33.7,96,62,28,29.37,29.14,20,4,20,0.01
2013-5-13,63.7,55.0,44.6,41.0,34.5,27.1,74,48,28,29.52,29.32,14,2,14,0.00
2013-5-14,68.8,56.1,41.5,44.8,37.2,29.6,85,52,26,29.60,29.42,16,2,16,0.00
2013-5-15,85.7,69.9,55.1,61.3,53.0,41.3,72,56,39,29.44,29.23,18,7,18,0.00
2013-5-16,83.6,75.1,65.8,62.8,59.4,55.1,82,59,38,29.33,29.24,14,5,14,0.00
2013-5-17,86.5,75.0,64.5,66.0,60.3,55.5,87,63,36,29.44,29.30,8,1,8,0.00
2013-5-18,76.1,68.0,62.0,68.5,62.8,56.9,97,84,66,29.52,29.40,9,0,9,0.44
2013-5-19,76.8,67.4,62.6,70.2,65.9,61.1,100,95,72,29.52,29.42,12,0,12,0.36
2013-5-20,77.6,69.8,66.3,70.5,67.8,65.5,100,94,73,29.47,29.38,14,2,14,0.23
2013-5-21,84.5,73.3,67.8,70.8,67.9,66.1,99,84,60,29.40,29.30,12,2,12,0.09
2013-5-22,83.2,73.9,69.1,71.0,67.0,64.1,96,80,57,29.39,29.27,14,3,14,0.05
2013-5-23,80.5,71.9,67.3,69.3,66.8,62.3,98,85,61,29.32,29.17,12,2,12,0.03
2013-5-24,69.4,63.1,52.0,68.5,52.0,34.9,99,71,37,29.52,29.16,20,5,20,0.03
2013-5-25,72.3,57.2,43.5,45.7,37.5,31.5,80,52,24,29.60,29.47,14,2,14,0.00
2013-5-26,73.3,60.2,47.4,51.4,42.2,36.1,77,54,27,29.62,29.50,12,1,12,0.00
2013-5-27,79.9,66.5,51.9,55.5,51.1,44.6,91,60,35,29.63,29.51,12,1,12,0.00
2013-5-28,83.0,71.9,61.0,65.3,60.3,50.3,89,68,51,29.60,29.49,17,4,17,0.00
2013-5-29,84.3,74.2,64.7,64.3,62.0,59.1,91,67,46,29.59,29.50,16,5,16,0.00
2013-5-30,85.9,74.8,65.0,66.6,63.0,57.5,92,69,39,29.62,29.52,13,3,13,0.00
2013-5-31,86.1,76.4,67.6,68.7,65.0,58.4,92,70,41,29.58,29.46,13,3,13,0.00
2013-6-1,86.5,77.1,68.3,67.6,65.0,61.0,93,69,45,29.49,29.38,20,5,20,0.00
2013-6-2,84.5,76.2,67.8,68.6,65.3,61.7,90,70,51,29.41,29.26,18,5,18,0.02
2013-6-3,83.0,73.4,67.4,72.1,69.3,64.9,99,88,62,29.32,29.19,16,3,16,0.16
2013-6-4,79.6,70.8,65.0,66.7,62.8,57.8,100,78,50,29.46,29.24,13,1,13,0.00
2013-6-5,82.4,71.3,59.8,62.1,58.8,54.5,94,67,41,29.50,29.38,9,1,9,0.00
2013-6-6,73.9,68.9,63.5,72.1,65.2,54.9,99,88,64,29.41,29.19,12,1,12,0.50
2013-6-7,74.6,69.9,68.3,74.6,69.9,68.1,100,100,99,29.22,28.85,20,2,20,1.96
2013-6-8,82.4,72.9,65.2,70.3,67.4,63.2,100,85,57,29.45,29.11,22,2,22,0.22
2013-6-9,87.0,76.6,67.6,72.2,68.7,64.2,99,78,51,29.52,29.40,10,1,10,0.04
2013-6-10,82.0,74.1,70.3,75.2,71.0,67.5,97,91,71,29.46,29.25,25,5,25,0.04
2013-6-11,84.0,75.6,69.8,69.2,65.8,61.7,92,73,48,29.30,29.25,18,6,18,0.04
2013-6-12,88.6,78.1,67.4,74.4,68.1,62.9,88,73,54,29.32,29.22,14,3,14,0.03
2013-6-13,92.1,78.8,67.4,74.3,70.3,57.5,96,77,44,29.23,28.96,41,6,41,0.02
2013-6-14,77.4,69.4,60.1,66.6,57.6,53.6,96,68,45,29.36,29.03,20,3,20,0.03
2013-6-15,83.6,72.2,62.0,64.5,59.0,53.0,89,65,41,29.47,29.32,13,2,13,0.02
2013-6-16,84.9,75.3,66.0,68.3,62.6,54.6,75,65,54,29.47,29.35,21,6,21,0.00
2013-6-17,83.6,76.1,71.3,72.3,67.5,63.9,83,75,65,29.38,29.29,13,4,13,0.00
2013-6-18,82.2,73.4,67.9,72.6,69.6,67.2,98,89,69,29.33,29.11,20,4,20,0.24
2013-6-19,78.1,70.7,64.7,69.5,65.5,62.4,99,85,60,29.48,29.17,12,1,12,0.07
2013-6-20,80.7,70.9,62.9,65.1,60.9,53.0,98,73,49,29.60,29.43,8,1,8,0.02
2013-6-21,82.0,70.1,56.2,66.5,57.1,48.6,92,66,40,29.61,29.55,12,1,12,0.08
2013-6-22,80.5,71.7,67.3,69.9,67.9,62.9,98,88,66,29.58,29.47,12,2,12,0.01
2013-6-23,84.7,75.6,67.8,72.8,70.3,67.6,100,85,62,29.57,29.47,8,0,8,0.00
2013-6-24,85.7,77.4,71.1,74.2,71.2,68.0,97,82,60,29.56,29.44,12,3,12,0.00
2013-6-25,87.8,76.8,70.1,75.0,70.1,67.1,95,80,62,29.48,29.35,15,4,15,0.00
2013-6-26,89.5,76.3,68.3,73.7,69.7,65.6,98,82,54,29.39,29.24,22,5,22,0.37
2013-6-27,87.0,76.6,67.6,74.6,70.6,66.9,99,83,58,29.30,29.07,20,5,20,0.05
2013-6-28,89.0,77.2,69.4,73.1,71.0,64.7,97,83,54,29.12,28.93,26,5,26,0.68
2013-6-29,84.0,75.1,68.8,73.6,70.6,67.7,100,87,60,29.09,28.96,20,2,20,0.58
2013-6-30,84.7,75.7,70.6,74.7,71.6,67.0,99,88,70,29.23,29.05,8,1,8,0.66
2013-7-1,81.8,74.5,68.6,73.1,71.2,68.3,100,90,73,29.35,29.20,20,1,20,1.47
2013-7-2,76.5,73.2,71.1,73.7,71.8,69.6,99,96,86,29.55,29.35,12,1,12,0.44
2013-7-3,85.7,76.1,72.5,77.1,73.5,68.7,99,92,64,29.60,29.51,14,1,14,0.18
2013-7-4,88.2,78.3,72.5,75.5,72.2,68.5,99,83,54,29.64,29.55,12,1,12,0.11
2013-7-5,88.8,79.6,71.6,74.0,71.8,68.9,98,79,54,29.63,29.52,10,1,10,0.03
2013-7-6,87.0,78.9,72.7,74.5,71.7,69.2,97,80,62,29.61,29.48,12,1,12,0.02
2013-7-7,87.6,78.1,70.3,74.5,71.3,68.2,97,80,61,29.55,29.42,14,2,14,0.01
2013-7-8,88.2,76.5,70.9,74.5,71.3,68.2,99,85,54,29.53,29.44,12,1,12,0.01
2013-7-9,87.4,76.4,71.6,76.5,72.7,66.8,99,89,63,29.51,29.42,17,2,17,0.03
2013-7-10,87.0,78.0,71.3,75.2,72.6,69.1,97,84,64,29.47,29.31,17,4,17,0.01
2013-7-11,80.5,74.1,71.8,74.6,72.5,69.0,99,95,75,29.37,29.24,17,2,17,0.03
2013-7-12,75.3,72.0,69.4,72.4,69.8,67.5,99,93,80,29.39,29.23,10,1,10,0.03
2013-7-13,77.9,72.7,69.1,76.3,71.4,68.2,99,96,86,29.55,29.35,8,1,8,0.10
2013-7-14,86.7,76.9,70.1,76.1,71.9,69.4,99,86,60,29.67,29.51,8,1,8,0.11
2013-7-15,89.7,78.9,70.3,76.4,71.0,66.8,100,79,50,29.68,29.60,6,0,6,0.19
2013-7-16,93.2,81.6,72.5,77.8,72.5,68.1,97,76,51,29.62,29.53,7,1,7,0.04
2013-7-17,92.5,83.1,73.9,76.9,72.9,68.1,97,73,49,29.58,29.46,8,0,8,0.02
2013-7-18,94.7,82.9,74.0,78.7,74.5,70.5,97,77,49,29.50,29.40,6,0,6,0.01
2013-7-19,89.5,81.4,75.1,76.1,73.7,70.4,97,79,58,29.45,29.34,16,4,16,0.01
2013-7-20,88.0,79.5,74.6,75.1,72.4,70.2,90,80,62,29.38,29.28,17,5,17,0.02
2013-7-21,87.8,77.8,73.0,75.4,72.2,70.2,92,84,60,29.35,29.26,12,2,12,0.05
2013-7-22,86.1,78.4,72.1,76.3,72.8,71.4,99,84,64,29.32,29.18,14,2,14,0.02
2013-7-23,88.0,80.1,74.0,73.7,71.2,68.4,92,76,55,29.20,29.08,16,4,16,0.01
2013-7-24,92.5,80.5,72.3,73.1,69.7,65.2,90,72,42,29.21,29.09,7,1,7,0.00
2013-7-25,78.5,72.4,67.4,70.1,66.0,58.3,96,81,67,29.39,29.16,12,2,12,0.00
2013-7-26,83.6,74.6,62.7,65.6,61.6,50.1,96,67,46,29.47,29.34,7,0,7,0.00
2013-7-27,86.1,74.1,68.9,73.4,67.1,50.1,99,81,52,29.42,29.29,8,0,8,0.11
2013-7-28,85.9,76.8,69.6,74.3,69.8,67.0,99,81,59,29.35,29.28,8,1,8,0.01
2013-7-29,86.1,76.6,69.4,70.5,64.1,58.3,98,66,50,29.51,29.32,12,1,12,0.00
2013-7-30,87.0,75.1,62.7,70.4,63.7,58.1,86,69,41,29.58,29.49,6,0,6,0.00
2013-7-31,79.0,72.1,70.3,73.2,69.8,66.1,98,93,73,29.50,29.37,10,0,10,0.06
2013-8-1,84.5,74.7,69.3,73.4,70.7,68.1,99,88,64,29.38,29.22,14,2,14,0.27
2013-8-2,88.0,76.9,66.9,71.8,67.2,64.0,96,74,46,29.38,29.26,8,1,8,0.00
2013-8-3,86.7,76.3,69.8,76.2,71.9,64.6,98,87,64,29.37,29.27,20,2,20,0.34
2013-8-4,83.4,73.8,67.9,71.7,66.0,58.7,100,79,45,29.39,29.25,16,2,16,0.01
2013-8-5,81.6,72.4,63.1,68.9,62.1,57.0,91,72,47,29.46,29.35,6,0,6,0.00
2013-8-6,80.9,73.5,66.9,70.6,66.8,62.2,98,80,61,29.42,29.35,13,2,13,0.13
2013-8-7,85.9,76.6,68.6,71.2,68.1,64.9,97,77,51,29.46,29.38,12,1,12,0.00
2013-8-8,87.6,78.5,70.8,74.5,70.8,68.3,98,79,55,29.43,29.35,12,1,12,0.00
2013-8-9,90.1,80.8,74.0,75.2,72.8,70.4,95,78,57,29.40,29.33,17,5,17,0.00
2013-8-10,90.3,79.1,73.9,76.8,73.4,70.3,97,83,56,29.46,29.35,13,3,13,0.03
2013-8-11,91.2,79.5,72.1,75.5,72.9,68.9,99,82,49,29.46,29.36,10,1,10,0.00
2013-8-12,91.6,81.0,73.5,74.4,71.4,66.5,98,75,47,29.40,29.29,8,1,8,0.00
2013-8-13,88.0,77.2,70.9,76.0,72.0,67.3,99,85,60,29.33,29.14,14,2,14,0.12
2013-8-14,74.9,70.1,60.5,71.4,62.8,55.6,94,78,59,29.44,29.17,12,2,12,0.00
2013-8-15,76.1,65.2,58.1,62.5,57.1,54.1,91,76,49,29.52,29.40,10,1,10,0.00
2013-8-16,71.3,65.2,58.1,60.9,58.7,55.6,93,80,59,29.53,29.45,8,0,8,0.00
2013-8-17,64.8,62.0,61.6,59.8,59.5,59.1,92,91,89,29.53,29.49,7,1,7,0.00
2013-8-18,77.6,68.3,65.6,68.8,65.7,64.6,99,92,70,29.56,29.50,6,0,11,0.45
2013-8-19,75.1,71.9,68.8,71.6,69.4,67.8,99,92,80,29.52,29.45,5,0,5,0.46
2013-8-20,83.0,74.1,67.1,72.4,69.8,66.8,100,88,65,29.55,29.46,5,0,5,0.01
2013-8-21,86.5,75.8,71.3,74.5,72.3,70.7,99,90,64,29.58,29.45,12,0,12,0.18
2013-8-22,88.6,77.6,69.9,73.4,70.1,65.9,100,81,50,29.50,29.35,13,1,13,0.01
2013-8-23,86.3,76.2,67.9,72.2,69.5,65.2,97,81,54,29.43,29.28,17,3,17,0.00
2013-8-24,81.8,71.2,62.6,65.2,60.7,55.4,97,72,41,29.66,29.37,16,3,16,0.00
2013-8-25,79.0,69.0,61.3,63.8,58.9,50.1,97,73,38,29.75,29.60,12,2,12,0.00
2013-8-26,83.8,69.0,56.6,61.0,57.3,50.1,96,70,34,29.67,29.46,8,1,8,0.00
2013-8-27,89.7,75.2,65.0,71.7,64.8,57.4,83,71,49,29.47,29.31,12,2,12,0.00
2013-8-28,80.1,75.8,71.5,75.8,71.9,69.2,96,88,75,29.34,29.22,13,1,13,0.02
2013-8-29,85.3,77.5,71.1,72.7,70.9,68.6,93,81,61,29.37,29.19,14,3,14,0.01
2013-8-30,88.8,75.2,65.5,69.2,65.7,58.6,99,76,40,29.42,29.30,7,0,7,0.00
2013-8-31,88.6,77.2,68.6,71.6,68.6,65.0,97,77,51,29.33,29.22,16,3,16,0.02
2013-9-1,86.7,76.1,71.6,76.9,72.0,68.7,98,88,62,29.26,29.15,21,3,21,1.27
2013-9-2,74.0,73.0,69.8,73.1,72.4,69.8,100,98,97,29.22,29.18,12,1,12,0.01
2013-9-3,74.0,74.0,74.0,73.1,73.1,73.1,97,97,97,29.22,29.22,0,0,0,0.00
2013-9-4,74.0,74.0,74.0,73.1,73.1,73.1,97,97,97,29.22,29.22,0,0,0,0.00
2013-9-5,74.0,74.0,74.0,73.1,73.1,73.1,97,97,97,29.22,29.22,0,0,0,0.00
2013-9-6,74.0,74.0,74.0,73.1,73.1,73.1,97,97,97,29.22,29.22,0,0,0,0.00
2013-9-7,74.0,74.0,74.0,73.1,73.1,73.1,97,97,97,29.22,29.22,0,0,0,0.00
2013-9-8,74.0,74.0,74.0,73.1,73.1,73.1,97,97,97,29.22,29.22,0,0,0,0.00
2013-9-9,74.0,74.0,74.0,73.1,73.1,73.1,97,97,97,29.22,29.22,0,0,0,0.00
2013-9-10,74.0,74.0,74.0,73.1,73.1,73.1,97,97,97,29.22,29.22,0,0,0,0.00
2013-9-11,74.0,74.0,74.0,73.1,73.1,73.1,97,97,97,29.22,29.22,0,0,0,0.00
2013-9-12,74.0,74.0,74.0,73.1,73.1,73.1,97,97,97,29.22,29.22,0,0,0,0.00
2013-9-13,74.0,74.0,74.0,73.1,73.1,73.1,97,97,97,29.22,29.22,0,0,0,0.00
2013-9-14,74.0,74.0,74.0,73.1,73.1,73.1,97,97,97,29.22,29.22,0,0,0,0.00
2013-9-15,74.0,74.0,74.0,73.1,73.1,73.1,97,97,97,29.22,29.22,0,0,0,0.00
2013-9-16,80.7,73.6,66.1,79.8,69.0,58.2,97,87,50,29.55,29.22,13,1,13,0.00
2013-9-17,75.1,65.0,56.0,58.6,52.3,46.8,89,66,39,29.67,29.50,13,2,13,0.00
2013-9-18,75.3,60.8,49.5,54.6,50.3,44.9,97,72,38,29.66,29.52,7,1,7,0.00
2013-9-19,74.6,64.7,56.3,61.4,56.0,50.5,89,75,51,29.55,29.44,7,0,7,0.00
2013-9-20,73.3,66.6,61.2,66.4,62.5,56.9,98,87,72,29.45,29.33,8,0,8,0.29
2013-9-21,74.6,68.9,65.0,70.6,66.8,63.1,99,93,80,29.34,29.09,14,0,14,0.73
2013-9-22,76.5,67.6,60.4,66.3,59.6,54.1,100,78,47,29.25,29.08,18,4,18,0.37
2013-9-23,72.1,61.7,54.7,57.1,51.8,47.6,89,72,48,29.42,29.21,13,2,13,0.00
2013-9-24,75.3,62.4,53.1,59.6,54.5,51.0,94,77,51,29.45,29.31,7,0,7,0.00
2013-9-25,74.0,63.6,53.8,63.1,57.9,53.0,99,83,55,29.32,29.23,6,0,6,0.00
2013-9-26,76.3,65.6,58.3,59.0,55.8,49.3,94,73,42,29.40,29.23,13,1,13,0.00
2013-9-27,71.1,61.5,54.1,64.1,55.7,52.7,99,83,57,29.53,29.35,12,1,12,0.00
2013-9-28,69.1,60.8,53.2,62.2,53.4,51.1,97,78,58,29.61,29.50,13,1,13,0.00
2013-9-29,74.9,62.7,52.3,62.2,53.9,44.5,99,75,45,29.54,29.38,12,1,12,0.00
2013-9-30,75.8,63.1,53.8,63.5,55.0,44.3,99,78,43,29.45,29.35,12,0,12,0.00
2013-10-1,81.4,68.4,56.5,63.7,57.4,50.8,93,69,43,29.47,29.37,8,1,8,0.00
2013-10-2,84.3,74.5,61.0,63.9,59.8,50.4,94,62,41,29.48,29.39,8,1,8,0.00
2013-10-3,83.6,73.6,63.7,63.2,59.1,51.5,89,62,48,29.49,29.41,6,0,6,0.00
2013-10-4,86.1,74.9,65.0,66.0,58.0,45.9,83,56,43,29.48,29.40,10,1,10,0.00
2013-10-5,88.8,76.0,66.1,67.9,63.6,58.8,91,68,37,29.46,29.38,7,1,7,0.00
2013-10-6,83.2,73.0,65.2,69.0,66.8,62.0,98,82,60,29.42,29.30,13,1,13,0.00
2013-10-7,73.9,69.7,62.7,71.5,68.4,59.1,99,96,88,29.35,29.21,18,2,18,1.03
2013-10-8,65.8,59.0,57.5,59.1,49.0,44.9,89,70,63,29.55,29.29,20,6,20,0.00
2013-10-9,59.9,56.9,53.8,54.5,52.0,47.7,98,84,73,29.54,29.42,21,8,21,0.16
2013-10-10,59.0,55.7,53.1,58.3,55.1,52.4,99,98,96,29.46,29.28,21,8,21,0.16
2013-10-11,64.5,60.5,57.8,60.9,59.1,57.5,99,95,86,29.32,29.25,13,3,13,0.01
2013-10-12,67.8,63.2,60.4,64.4,62.0,59.2,99,96,87,29.43,29.30,10,2,10,0.03
2013-10-13,65.2,62.7,60.9,64.3,62.2,60.7,100,98,93,29.55,29.42,17,5,17,0.09
2013-10-14,63.1,61.0,56.3,62.4,59.6,55.5,100,95,83,29.59,29.53,16,5,16,0.09
2013-10-15,69.6,60.4,51.7,61.1,56.8,51.4,100,89,68,29.55,29.41,12,2,12,0.01
2013-10-16,70.1,64.6,61.6,63.1,61.2,59.6,99,89,74,29.43,29.31,6,0,6,0.00
2013-10-17,73.5,66.7,60.7,64.5,61.9,59.6,97,85,66,29.33,29.19,16,3,16,0.00
2013-10-18,69.1,62.0,53.6,64.2,52.6,44.0,95,73,48,29.39,29.21,14,2,14,0.00
2013-10-19,68.8,61.7,57.2,63.8,59.2,53.8,98,92,82,29.35,29.17,8,0,8,0.01
2013-10-20,62.6,53.6,47.0,58.1,51.9,43.7,98,94,88,29.35,29.23,12,1,12,0.01
2013-10-24,55.6,55.0,54.4,34.0,32.8,31.8,44,43,42,29.42,29.42,5,0,5,0.00
2013-11-12,56.7,41.5,35.0,37.1,29.5,17.8,90,64,41,29.69,29.44,24,9,24,0.00
2013-11-14,56.9,55.9,55.0,21.1,20.0,18.9,26,24,23,29.69,29.68,13,9,13,0.00
2013-11-17,65.6,64.5,63.2,65.3,61.6,58.1,99,91,79,29.35,29.24,12,2,12,0.02
2013-11-18,73.7,64.6,53.1,66.6,48.6,28.1,99,61,31,29.31,29.15,20,5,20,0.06
2013-11-19,58.1,47.6,40.8,29.0,26.6,23.5,61,45,33,29.66,29.26,17,4,17,0.00
2013-11-20,51.0,42.9,35.0,37.8,30.8,26.0,78,63,47,29.78,29.60,17,3,17,0.00
2013-11-21,59.3,48.6,39.8,47.5,41.3,33.8,87,76,62,29.83,29.72,12,2,12,0.00
2013-11-22,65.2,54.9,46.5,59.9,50.0,42.2,95,84,73,29.73,29.42,13,2,13,0.01
2013-11-23,64.7,54.7,42.8,60.0,40.2,17.6,99,62,30,29.50,29.37,14,5,14,0.01
2013-11-24,46.5,31.9,26.6,20.6,6.2,-0.4,45,34,22,29.86,29.45,22,6,22,0.00
2013-11-25,42.3,30.6,19.9,12.1,6.8,2.6,65,38,21,29.90,29.70,7,0,7,0.00
2013-11-26,65.0,43.5,34.1,65.0,33.9,8.0,100,73,33,29.75,28.92,12,2,12,0.73
2013-11-27,65.0,38.9,29.1,50.8,36.3,16.7,100,91,59,29.47,28.83,21,6,21,0.30
2013-11-28,30.9,27.4,26.4,16.7,14.9,13.4,62,59,56,29.64,29.35,20,1,20,0.00